createdAt,value
2023-05-08T00:00:16.210Z,0.00
2023-05-08T00:01:16.242Z,0.00
2023-05-08T00:02:16.359Z,0.00
2023-05-08T00:03:16.386Z,0.00
2023-05-08T00:04:16.424Z,0.00
2023-05-08T00:05:16.654Z,0.00
2023-05-08T00:06:16.380Z,0.00
2023-05-08T00:07:16.412Z,0.00
2023-05-08T00:08:16.436Z,0.00
2023-05-08T00:09:16.472Z,0.00
2023-05-08T00:10:16.505Z,0.00
2023-05-08T00:11:16.528Z,0.00
2023-05-08T00:12:16.862Z,0.00
2023-05-08T00:13:16.615Z,0.00
2023-05-08T00:14:16.619Z,0.00
2023-05-08T00:15:16.659Z,0.00
2023-05-08T00:16:16.705Z,0.00
2023-05-08T00:17:16.713Z,0.00
2023-05-08T00:18:16.754Z,0.00
2023-05-08T00:19:17.071Z,0.00
2023-05-08T00:20:16.792Z,0.00
2023-05-08T00:21:16.826Z,0.00
2023-05-08T00:22:16.851Z,0.00
2023-05-08T00:23:16.886Z,0.00
2023-05-08T00:24:16.920Z,0.00
2023-05-08T00:25:16.949Z,0.00
2023-05-08T00:26:17.276Z,0.00
2023-05-08T00:27:17.004Z,0.00
2023-05-08T00:28:17.033Z,0.00
2023-05-08T00:29:17.056Z,0.00
2023-05-08T00:30:17.089Z,0.00
2023-05-08T00:31:17.113Z,0.00
2023-05-08T00:32:17.202Z,0.00
2023-05-08T00:33:17.476Z,0.00
2023-05-08T00:34:17.224Z,0.00
2023-05-08T00:35:17.238Z,0.00
2023-05-08T00:36:17.373Z,0.00
2023-05-08T00:37:17.290Z,0.00
2023-05-08T00:38:17.368Z,0.00
2023-05-08T00:39:17.362Z,0.00
2023-05-08T00:40:17.714Z,0.00
2023-05-08T00:41:17.410Z,0.00
2023-05-08T00:42:17.441Z,0.00
2023-05-08T00:43:17.466Z,0.00
2023-05-08T00:45:17.524Z,0.00
2023-05-08T00:46:17.580Z,0.00
2023-05-08T00:47:17.883Z,0.00
2023-05-08T00:48:17.612Z,0.00
2023-05-08T00:49:17.645Z,0.00
2023-05-08T00:50:17.701Z,0.00
2023-05-08T00:51:17.707Z,0.00
2023-05-08T00:53:17.756Z,0.00
2023-05-08T00:54:18.088Z,0.00
2023-05-08T00:55:17.816Z,0.00
2023-05-08T00:56:17.852Z,0.00
2023-05-08T00:57:17.983Z,0.00
2023-05-08T00:59:17.937Z,0.00
2023-05-08T01:00:17.960Z,0.00
2023-05-08T01:01:18.350Z,0.00
2023-05-08T01:02:18.041Z,0.00
2023-05-08T01:03:18.215Z,0.00
2023-05-08T01:04:18.086Z,0.00
2023-05-08T01:05:18.112Z,0.00
2023-05-08T01:06:18.162Z,0.00
2023-05-08T01:07:18.178Z,0.00
2023-05-08T01:09:18.477Z,0.00
2023-05-08T01:10:18.258Z,0.00
2023-05-08T01:11:18.300Z,0.00
2023-05-08T01:12:18.319Z,0.00
2023-05-08T01:13:18.414Z,0.00
2023-05-08T01:14:18.374Z,0.00
2023-05-08T01:15:18.409Z,0.00
2023-05-08T01:16:18.751Z,0.00
2023-05-08T01:17:18.500Z,0.00
2023-05-08T01:18:18.494Z,0.00
2023-05-08T01:19:18.521Z,0.00
2023-05-08T01:20:18.552Z,0.00
2023-05-08T01:21:18.581Z,0.00
2023-05-08T01:22:18.626Z,0.00
2023-05-08T01:23:18.944Z,0.00
2023-05-08T01:24:18.668Z,0.00
2023-05-08T01:25:18.698Z,0.00
2023-05-08T01:26:18.746Z,0.00
2023-05-08T01:27:18.759Z,0.00
2023-05-08T01:28:18.802Z,0.00
2023-05-08T01:29:18.812Z,0.00
2023-05-08T01:31:19.196Z,0.00
2023-05-08T01:32:18.945Z,0.00
2023-05-08T01:33:19.067Z,0.00
2023-05-08T01:34:18.957Z,0.00
2023-05-08T01:35:18.987Z,0.00
2023-05-08T01:36:19.098Z,0.00
2023-05-08T01:37:19.053Z,0.00
2023-05-08T01:38:19.404Z,0.00
2023-05-08T01:39:19.106Z,0.00
2023-05-08T01:40:19.144Z,0.00
2023-05-08T01:42:19.197Z,0.00
2023-05-08T01:43:19.219Z,0.00
2023-05-08T01:44:19.258Z,0.00
2023-05-08T01:45:19.579Z,0.00
2023-05-08T01:46:19.342Z,0.00
2023-05-08T01:47:19.384Z,0.00
2023-05-08T01:49:19.418Z,0.00
2023-05-08T01:50:19.427Z,0.00
2023-05-08T01:51:19.463Z,0.00
2023-05-08T01:52:19.884Z,0.00
2023-05-08T01:53:19.568Z,0.00
2023-05-08T01:54:19.574Z,0.00
2023-05-08T01:56:19.607Z,0.00
2023-05-08T01:57:19.647Z,0.00
2023-05-08T01:58:19.663Z,0.00
2023-05-08T01:59:20.012Z,0.00
2023-05-08T02:00:19.723Z,0.00
2023-05-08T02:01:19.873Z,0.00
2023-05-08T02:02:19.843Z,0.00
2023-05-08T02:03:19.848Z,0.00
2023-05-08T02:04:19.885Z,0.00
2023-05-08T02:05:19.880Z,0.00
2023-05-08T02:06:20.198Z,0.00
2023-05-08T02:07:20.026Z,0.00
2023-05-08T02:08:19.956Z,0.00
2023-05-08T02:09:19.992Z,0.00
2023-05-08T02:10:20.058Z,0.00
2023-05-08T02:11:20.059Z,0.00
2023-05-08T02:12:20.201Z,0.00
2023-05-08T02:13:20.508Z,0.00
2023-05-08T02:14:20.147Z,0.00
2023-05-08T02:15:20.160Z,0.00
2023-05-08T02:16:20.215Z,0.00
2023-05-08T02:17:20.216Z,0.00
2023-05-08T02:18:20.300Z,0.00
2023-05-08T02:19:20.276Z,0.00
2023-05-08T02:20:20.630Z,0.00
2023-05-08T02:21:20.355Z,0.00
2023-05-08T02:22:20.363Z,0.00
2023-05-08T02:23:20.389Z,0.00
2023-05-08T02:24:20.429Z,0.00
2023-05-08T02:25:20.468Z,0.00
2023-05-08T02:26:20.799Z,0.00
2023-05-08T02:27:20.605Z,0.00
2023-05-08T02:28:20.584Z,0.00
2023-05-08T02:29:20.562Z,0.00
2023-05-08T02:30:20.617Z,0.00
2023-05-08T02:31:20.886Z,0.00
2023-05-08T02:32:21.127Z,0.00
2023-05-08T02:33:20.686Z,0.00
2023-05-08T02:34:20.712Z,0.00
2023-05-08T02:36:20.771Z,0.00
2023-05-08T02:37:20.797Z,0.00
2023-05-08T02:38:21.132Z,0.00
2023-05-08T02:39:20.854Z,0.00
2023-05-08T02:40:20.881Z,0.00
2023-05-08T02:41:20.915Z,0.00
2023-05-08T02:42:20.965Z,0.00
2023-05-08T02:44:21.003Z,0.00
2023-05-08T02:45:21.286Z,0.00
2023-05-08T02:47:21.121Z,0.00
2023-05-08T02:48:21.114Z,0.00
2023-05-08T02:50:21.285Z,0.00
2023-05-08T02:51:21.265Z,0.00
2023-05-08T02:52:21.483Z,0.00
2023-05-08T02:53:21.257Z,0.00
2023-05-08T02:54:21.294Z,0.00
2023-05-08T02:55:21.320Z,0.00
2023-05-08T02:56:21.349Z,0.00
2023-05-08T02:57:21.374Z,0.00
2023-05-08T02:58:21.429Z,0.00
2023-05-08T03:00:21.715Z,0.00
2023-05-08T03:01:21.575Z,0.00
2023-05-08T03:02:21.666Z,0.00
2023-05-08T03:03:21.597Z,0.00
2023-05-08T03:04:21.571Z,0.00
2023-05-08T03:05:21.612Z,0.00
2023-05-08T03:07:21.667Z,0.00
2023-05-08T03:08:21.998Z,0.00
2023-05-08T03:09:21.726Z,0.00
2023-05-08T03:11:21.806Z,0.00
2023-05-08T03:12:21.801Z,0.00
2023-05-08T03:13:21.917Z,0.00
2023-05-08T03:14:22.237Z,0.00
2023-05-08T03:15:21.908Z,0.00
2023-05-08T03:16:21.984Z,0.00
2023-05-08T03:17:21.990Z,0.00
2023-05-08T03:18:21.978Z,0.00
2023-05-08T03:19:23.259Z,0.00
2023-05-08T03:20:22.059Z,0.00
2023-05-08T03:21:22.375Z,0.00
2023-05-08T03:22:22.105Z,0.00
2023-05-08T03:23:22.125Z,0.00
2023-05-08T03:24:22.158Z,0.00
2023-05-08T03:25:22.183Z,0.00
2023-05-08T03:26:22.214Z,0.00
2023-05-08T03:27:22.254Z,4.00
2023-05-08T03:28:22.579Z,4.00
2023-05-08T03:29:22.311Z,4.00
2023-05-08T03:30:22.346Z,0.00
2023-05-08T03:31:22.502Z,4.00
2023-05-08T03:32:22.429Z,4.00
2023-05-08T03:33:22.416Z,8.00
2023-05-08T03:34:22.439Z,4.00
2023-05-08T03:35:22.779Z,8.00
2023-05-08T03:36:22.598Z,12.00
2023-05-08T03:37:22.561Z,8.00
2023-05-08T03:38:22.559Z,8.00
2023-05-08T03:39:22.595Z,12.00
2023-05-08T03:40:22.614Z,12.00
2023-05-08T03:41:22.757Z,20.00
2023-05-08T03:42:22.675Z,20.00
2023-05-08T03:43:22.706Z,20.00
2023-05-08T03:44:22.746Z,24.00
2023-05-08T03:45:22.760Z,24.00
2023-05-08T03:46:22.914Z,32.00
2023-05-08T03:47:22.892Z,36.00
2023-05-08T03:48:23.155Z,36.00
2023-05-08T03:49:22.877Z,40.00
2023-05-08T03:50:22.905Z,44.00
2023-05-08T03:51:22.960Z,52.00
2023-05-08T03:52:23.021Z,56.00
2023-05-08T03:53:22.991Z,60.00
2023-05-08T03:54:23.221Z,68.00
2023-05-08T03:55:23.353Z,72.00
2023-05-08T03:56:24.682Z,80.00
2023-05-08T03:57:23.111Z,84.00
2023-05-08T03:58:23.243Z,88.00
2023-05-08T03:59:23.180Z,100.00
2023-05-08T04:00:23.214Z,104.00
2023-05-08T04:01:23.244Z,112.00
2023-05-08T04:02:23.665Z,120.00
2023-05-08T04:03:23.354Z,128.00
2023-05-08T04:04:23.368Z,140.00
2023-05-08T04:05:23.349Z,148.00
2023-05-08T04:06:23.384Z,156.00
2023-05-08T04:07:23.410Z,160.00
2023-05-08T04:08:23.442Z,172.00
2023-05-08T04:09:23.767Z,180.00
2023-05-08T04:10:23.491Z,188.00
2023-05-08T04:11:23.523Z,196.00
2023-05-08T04:12:23.558Z,204.00
2023-05-08T04:13:23.616Z,212.00
2023-05-08T04:15:23.640Z,232.00
2023-05-08T04:16:24.034Z,244.00
2023-05-08T04:17:23.750Z,252.00
2023-05-08T04:19:23.795Z,272.00
2023-05-08T04:20:23.800Z,284.00
2023-05-08T04:21:23.918Z,292.00
2023-05-08T04:22:24.143Z,304.00
2023-05-08T04:23:23.887Z,316.00
2023-05-08T04:24:23.911Z,328.00
2023-05-08T04:25:23.931Z,336.00
2023-05-08T04:26:23.994Z,348.00
2023-05-08T04:27:23.990Z,360.00
2023-05-08T04:28:24.315Z,376.00
2023-05-08T04:30:24.079Z,404.00
2023-05-08T04:31:24.126Z,412.00
2023-05-08T04:32:24.199Z,428.00
2023-05-08T04:33:24.196Z,440.00
2023-05-08T04:34:24.504Z,452.00
2023-05-08T04:35:24.286Z,464.00
2023-05-08T04:36:24.254Z,476.00
2023-05-08T04:37:24.277Z,492.00
2023-05-08T04:38:24.316Z,504.00
2023-05-08T04:39:24.332Z,516.00
2023-05-08T04:40:24.361Z,528.00
2023-05-08T04:41:24.753Z,540.00
2023-05-08T04:42:24.423Z,552.00
2023-05-08T04:43:24.451Z,560.00
2023-05-08T04:44:24.482Z,572.00
2023-05-08T04:45:24.545Z,584.00
2023-05-08T04:46:24.703Z,596.00
2023-05-08T04:47:24.611Z,604.00
2023-05-08T04:48:24.898Z,620.00
2023-05-08T04:49:24.668Z,628.00
2023-05-08T04:50:24.652Z,640.00
2023-05-08T04:51:24.709Z,648.00
2023-05-08T04:52:24.707Z,656.00
2023-05-08T04:53:24.740Z,668.00
2023-05-08T04:54:24.770Z,676.00
2023-05-08T04:55:25.047Z,688.00
2023-05-08T04:56:24.829Z,700.00
2023-05-08T04:57:24.854Z,704.00
2023-05-08T04:58:24.885Z,712.00
2023-05-08T04:59:24.936Z,712.00
2023-05-08T05:00:24.955Z,720.00
2023-05-08T05:01:25.003Z,720.00
2023-05-08T05:02:25.271Z,724.00
2023-05-08T05:03:25.047Z,728.00
2023-05-08T05:04:25.057Z,736.00
2023-05-08T05:05:25.082Z,740.00
2023-05-08T05:06:25.413Z,744.00
2023-05-08T05:07:25.162Z,756.00
2023-05-08T05:08:25.265Z,776.00
2023-05-08T05:09:25.458Z,776.00
2023-05-08T05:10:25.226Z,780.00
2023-05-08T05:11:25.250Z,788.00
2023-05-08T05:12:25.296Z,796.00
2023-05-08T05:13:25.397Z,800.00
2023-05-08T05:14:25.378Z,796.00
2023-05-08T05:15:25.367Z,800.00
2023-05-08T05:16:25.703Z,804.00
2023-05-08T05:17:25.473Z,820.00
2023-05-08T05:18:25.457Z,836.00
2023-05-08T05:19:25.492Z,848.00
2023-05-08T05:20:25.515Z,868.00
2023-05-08T05:21:25.639Z,884.00
2023-05-08T05:22:25.580Z,900.00
2023-05-08T05:23:25.919Z,912.00
2023-05-08T05:24:25.631Z,924.00
2023-05-08T05:25:25.672Z,936.00
2023-05-08T05:26:25.686Z,948.00
2023-05-08T05:27:25.720Z,972.00
2023-05-08T05:28:25.746Z,1000.00
2023-05-08T05:29:25.770Z,1040.00
2023-05-08T05:30:26.104Z,1092.00
2023-05-08T05:31:25.844Z,1160.00
2023-05-08T05:32:25.864Z,1220.00
2023-05-08T05:33:25.889Z,1268.00
2023-05-08T05:34:25.936Z,1300.00
2023-05-08T05:35:25.984Z,1312.00
2023-05-08T05:36:26.070Z,1296.00
2023-05-08T05:37:26.310Z,1268.00
2023-05-08T05:38:26.031Z,1240.00
2023-05-08T05:39:26.081Z,1212.00
2023-05-08T05:40:26.095Z,1192.00
2023-05-08T05:41:26.195Z,1180.00
2023-05-08T05:42:26.141Z,1184.00
2023-05-08T05:43:26.174Z,1188.00
2023-05-08T05:44:26.459Z,1196.00
2023-05-08T05:45:26.235Z,1212.00
2023-05-08T05:46:26.276Z,1236.00
2023-05-08T05:47:26.383Z,1252.00
2023-05-08T05:48:26.318Z,1248.00
2023-05-08T05:49:26.395Z,1228.00
2023-05-08T05:50:26.534Z,1224.00
2023-05-08T05:51:26.408Z,1256.00
2023-05-08T05:52:26.428Z,1312.00
2023-05-08T05:53:26.466Z,1388.00
2023-05-08T05:54:26.502Z,1472.00
2023-05-08T05:55:26.537Z,1548.00
2023-05-08T05:58:26.931Z,1788.00
2023-05-08T05:59:26.663Z,1872.00
2023-05-08T06:00:26.674Z,1936.00
2023-05-08T06:01:26.707Z,1988.00
2023-05-08T06:02:26.875Z,2056.00
2023-05-08T06:04:27.203Z,2144.00
2023-05-08T06:05:26.813Z,2184.00
2023-05-08T06:06:26.846Z,2216.00
2023-05-08T06:07:26.865Z,2240.00
2023-05-08T06:08:26.904Z,2252.00
2023-05-08T06:09:26.934Z,2240.00
2023-05-08T06:10:26.967Z,2232.00
2023-05-08T06:11:27.002Z,2240.00
2023-05-08T06:12:27.017Z,2264.00
2023-05-08T06:13:27.177Z,2308.00
2023-05-08T06:14:27.068Z,2344.00
2023-05-08T06:15:27.097Z,2376.00
2023-05-08T06:16:27.162Z,2408.00
2023-05-08T06:17:27.203Z,2448.00
2023-05-08T06:18:27.195Z,2480.00
2023-05-08T06:19:27.217Z,2520.00
2023-05-08T06:20:27.315Z,2556.00
2023-05-08T06:21:27.288Z,2580.00
2023-05-08T06:22:27.300Z,2588.00
2023-05-08T06:23:27.338Z,2592.00
2023-05-08T06:24:27.366Z,2588.00
2023-05-08T06:25:27.489Z,2592.00
2023-05-08T06:26:27.434Z,2596.00
2023-05-08T06:27:27.466Z,2600.00
2023-05-08T06:28:27.801Z,2604.00
2023-05-08T06:29:27.508Z,2592.00
2023-05-08T06:31:27.720Z,2532.00
2023-05-08T06:32:27.614Z,2492.00
2023-05-08T06:33:27.732Z,2460.00
2023-05-08T06:34:27.648Z,2432.00
2023-05-08T06:36:28.027Z,2404.00
2023-05-08T06:37:27.738Z,2392.00
2023-05-08T06:38:27.770Z,2396.00
2023-05-08T06:39:27.801Z,2416.00
2023-05-08T06:40:27.847Z,2432.00
2023-05-08T06:41:27.855Z,2452.00
2023-05-08T06:42:27.888Z,2460.00
2023-05-08T06:43:28.245Z,2452.00
2023-05-08T06:44:27.960Z,2440.00
2023-05-08T06:45:27.997Z,2408.00
2023-05-08T06:46:28.091Z,2360.00
2023-05-08T06:47:28.077Z,2304.00
2023-05-08T06:48:28.066Z,2268.00
2023-05-08T06:49:28.096Z,2240.00
2023-05-08T06:50:28.122Z,2220.00
2023-05-08T06:51:28.160Z,2208.00
2023-05-08T06:52:28.177Z,2224.00
2023-05-08T06:53:28.217Z,2304.00
2023-05-08T06:54:28.245Z,2400.00
2023-05-08T06:55:28.279Z,2512.00
2023-05-08T06:56:28.597Z,2744.00
2023-05-08T06:57:28.326Z,3016.00
2023-05-08T06:58:28.362Z,3196.00
2023-05-08T06:59:28.471Z,3368.00
2023-05-08T07:00:28.429Z,3492.00
2023-05-08T07:01:28.502Z,3556.00
2023-05-08T07:02:28.679Z,3560.00
2023-05-08T07:04:30.832Z,3592.00
2023-05-08T07:05:28.569Z,3636.00
2023-05-08T07:06:28.591Z,3676.00
2023-05-08T07:07:28.633Z,3692.00
2023-05-08T07:08:28.655Z,3792.00
2023-05-08T07:09:28.690Z,3860.00
2023-05-08T07:10:28.725Z,3924.00
2023-05-08T07:11:29.040Z,3876.00
2023-05-08T07:12:28.779Z,3836.00
2023-05-08T07:13:28.984Z,3788.00
2023-05-08T07:14:28.825Z,3764.00
2023-05-08T07:15:29.079Z,3864.00
2023-05-08T07:17:29.258Z,3672.00
2023-05-08T07:18:29.002Z,3680.00
2023-05-08T07:19:28.990Z,3732.00
2023-05-08T07:20:29.010Z,3760.00
2023-05-08T07:21:29.037Z,3892.00
2023-05-08T07:22:29.170Z,3880.00
2023-05-08T07:23:29.515Z,3924.00
2023-05-08T07:24:29.135Z,3820.00
2023-05-08T07:25:29.156Z,3840.00
2023-05-08T07:26:29.187Z,3704.00
2023-05-08T07:27:29.209Z,3552.00
2023-05-08T07:28:29.299Z,3396.00
2023-05-08T07:29:29.320Z,3260.00
2023-05-08T07:30:29.321Z,3188.00
2023-05-08T07:31:29.385Z,3188.00
2023-05-08T07:32:29.401Z,3308.00
2023-05-08T07:33:29.413Z,3428.00
2023-05-08T07:34:29.427Z,3544.00
2023-05-08T07:35:29.766Z,3660.00
2023-05-08T07:36:29.483Z,3656.00
2023-05-08T07:37:29.566Z,3676.00
2023-05-08T07:38:29.748Z,3700.00
2023-05-08T07:39:29.572Z,3596.00
2023-05-08T07:40:29.598Z,3644.00
2023-05-08T07:41:29.700Z,3720.00
2023-05-08T07:42:29.914Z,3812.00
2023-05-08T07:43:29.696Z,4072.00
2023-05-08T07:44:31.776Z,4160.00
2023-05-08T07:45:29.747Z,4212.00
2023-05-08T07:46:29.805Z,4180.00
2023-05-08T07:47:29.870Z,4100.00
2023-05-08T07:48:29.841Z,4080.00
2023-05-08T07:49:29.871Z,4080.00
2023-05-08T07:50:29.943Z,4104.00
2023-05-08T07:51:29.934Z,4136.00
2023-05-08T07:52:29.968Z,4204.00
2023-05-08T07:53:29.984Z,4264.00
2023-05-08T07:54:30.032Z,4316.00
2023-05-08T07:55:30.352Z,4328.00
2023-05-08T07:58:30.138Z,4180.00
2023-05-08T07:59:30.185Z,4116.00
2023-05-08T08:00:30.204Z,4076.00
2023-05-08T08:01:30.233Z,4032.00
2023-05-08T08:02:30.676Z,4040.00
2023-05-08T08:03:30.416Z,4096.00
2023-05-08T08:04:30.502Z,4204.00
2023-05-08T08:05:30.352Z,4320.00
2023-05-08T08:06:30.384Z,4444.00
2023-05-08T08:07:30.415Z,4544.00
2023-05-08T08:08:30.478Z,4620.00
2023-05-08T08:09:30.779Z,4672.00
2023-05-08T08:10:30.503Z,4716.00
2023-05-08T08:11:30.540Z,4752.00
2023-05-08T08:12:30.563Z,4804.00
2023-05-08T08:13:30.660Z,4880.00
2023-05-08T08:14:30.624Z,4980.00
2023-05-08T08:15:30.742Z,5068.00
2023-05-08T08:16:31.233Z,5136.00
2023-05-08T08:17:30.763Z,5160.00
2023-05-08T08:18:30.755Z,5120.00
2023-05-08T08:19:30.890Z,5048.00
2023-05-08T08:20:30.835Z,5032.00
2023-05-08T08:21:30.840Z,5064.00
2023-05-08T08:22:30.902Z,5072.00
2023-05-08T08:23:31.198Z,5092.00
2023-05-08T08:24:30.929Z,5116.00
2023-05-08T08:25:31.012Z,5148.00
2023-05-08T08:26:30.991Z,5176.00
2023-05-08T08:27:31.031Z,5188.00
2023-05-08T08:28:31.058Z,5204.00
2023-05-08T08:29:31.387Z,5220.00
2023-05-08T08:30:31.131Z,5236.00
2023-05-08T08:32:31.229Z,5296.00
2023-05-08T08:33:31.210Z,5336.00
2023-05-08T08:34:31.230Z,5384.00
2023-05-08T08:35:31.698Z,5432.00
2023-05-08T08:36:31.304Z,5500.00
2023-05-08T08:37:31.332Z,5596.00
2023-05-08T08:38:31.357Z,5700.00
2023-05-08T08:40:31.421Z,5728.00
2023-05-08T08:41:31.454Z,5736.00
2023-05-08T08:42:31.741Z,5744.00
2023-05-08T08:44:31.542Z,5712.00
2023-05-08T08:45:31.573Z,5708.00
2023-05-08T08:46:31.669Z,5708.00
2023-05-08T08:47:31.710Z,5712.00
2023-05-08T08:49:31.819Z,5652.00
2023-05-08T08:50:31.724Z,5572.00
2023-05-08T08:51:31.869Z,5560.00
2023-05-08T08:52:31.802Z,5620.00
2023-05-08T08:53:31.818Z,5460.00
2023-05-08T08:54:32.158Z,5328.00
2023-05-08T08:55:31.879Z,5340.00
2023-05-08T08:56:31.913Z,5112.00
2023-05-08T08:57:31.959Z,4912.00
2023-05-08T08:58:31.967Z,4700.00
2023-05-08T08:59:32.008Z,4600.00
2023-05-08T09:00:32.067Z,4568.00
2023-05-08T09:01:32.461Z,4600.00
2023-05-08T09:02:32.183Z,4596.00
2023-05-08T09:03:32.324Z,4616.00
2023-05-08T09:04:32.155Z,4644.00
2023-05-08T09:05:32.196Z,4764.00
2023-05-08T09:06:32.272Z,4792.00
2023-05-08T09:08:32.681Z,4644.00
2023-05-08T09:09:32.313Z,4644.00
2023-05-08T09:10:32.345Z,4688.00
2023-05-08T09:11:32.376Z,4772.00
2023-05-08T09:12:32.407Z,4872.00
2023-05-08T09:13:32.467Z,5008.00
2023-05-08T09:14:32.481Z,5132.00
2023-05-08T09:15:32.496Z,5284.00
2023-05-08T09:16:32.557Z,5480.00
2023-05-08T09:17:32.663Z,5696.00
2023-05-08T09:18:32.595Z,5960.00
2023-05-08T09:19:32.627Z,6104.00
2023-05-08T09:21:32.983Z,6120.00
2023-05-08T09:22:32.722Z,6168.00
2023-05-08T09:23:33.047Z,6308.00
2023-05-08T09:24:32.910Z,6644.00
2023-05-08T09:26:32.837Z,6612.00
2023-05-08T09:27:32.878Z,6620.00
2023-05-08T09:28:33.214Z,6632.00
2023-05-08T09:31:33.072Z,6648.00
2023-05-08T09:32:33.106Z,6640.00
2023-05-08T09:33:33.061Z,6628.00
2023-05-08T09:34:33.411Z,6632.00
2023-05-08T09:35:33.118Z,6668.00
2023-05-08T09:36:33.153Z,6716.00
2023-05-08T09:37:33.180Z,6744.00
2023-05-08T09:38:33.216Z,6712.00
2023-05-08T09:39:33.292Z,6636.00
2023-05-08T09:40:33.706Z,6544.00
2023-05-08T09:41:33.306Z,6420.00
2023-05-08T09:42:33.341Z,6268.00
2023-05-08T09:43:33.377Z,6140.00
2023-05-08T09:44:33.399Z,6056.00
2023-05-08T09:45:33.479Z,6008.00
2023-05-08T09:46:33.775Z,5976.00
2023-05-08T09:47:33.505Z,5968.00
2023-05-08T09:48:33.523Z,5944.00
2023-05-08T09:49:33.558Z,5896.00
2023-05-08T09:50:33.599Z,5824.00
2023-05-08T09:51:33.628Z,5724.00
2023-05-08T09:52:33.651Z,5628.00
2023-05-08T09:53:33.989Z,5520.00
2023-05-08T09:54:33.715Z,5404.00
2023-05-08T09:55:33.746Z,5296.00
2023-05-08T09:56:33.928Z,5240.00
2023-05-08T09:57:33.815Z,5252.00
2023-05-08T09:58:33.873Z,5316.00
2023-05-08T09:59:34.474Z,5408.00
2023-05-08T10:00:34.204Z,5492.00
2023-05-08T10:02:34.048Z,5584.00
2023-05-08T10:03:34.006Z,5596.00
2023-05-08T10:04:34.026Z,5592.00
2023-05-08T10:06:34.108Z,5612.00
2023-05-08T10:07:34.539Z,5632.00
2023-05-08T10:08:34.169Z,5600.00
2023-05-08T10:09:47.004Z,5508.00
2023-05-08T10:10:34.244Z,5400.00
2023-05-08T10:11:34.269Z,5288.00
2023-05-08T10:12:34.510Z,5204.00
2023-05-08T10:13:34.326Z,5176.00
2023-05-08T10:14:34.356Z,5188.00
2023-05-08T10:15:34.374Z,5236.00
2023-05-08T10:16:34.450Z,5312.00
2023-05-08T10:17:34.468Z,5420.00
2023-05-08T10:18:34.471Z,5556.00
2023-05-08T10:20:34.834Z,5816.00
2023-05-08T10:21:34.570Z,5956.00
2023-05-08T10:22:34.608Z,6076.00
2023-05-08T10:23:34.630Z,6164.00
2023-05-08T10:24:34.661Z,6240.00
2023-05-08T10:25:34.698Z,6352.00
2023-05-08T10:26:34.739Z,6492.00
2023-05-08T10:27:35.080Z,6648.00
2023-05-08T10:28:34.905Z,6784.00
2023-05-08T10:29:34.817Z,6916.00
2023-05-08T10:30:34.850Z,7044.00
2023-05-08T10:31:35.025Z,7156.00
2023-05-08T10:32:34.943Z,7244.00
2023-05-08T10:33:34.964Z,7300.00
2023-05-08T10:34:35.230Z,7312.00
2023-05-08T10:35:35.013Z,7312.00
2023-05-08T10:36:35.035Z,7320.00
2023-05-08T10:37:35.074Z,7304.00
2023-05-08T10:38:35.100Z,7296.00
2023-05-08T10:39:35.136Z,7288.00
2023-05-08T10:40:35.171Z,7300.00
2023-05-08T10:41:35.449Z,7332.00
2023-05-08T10:42:35.238Z,7372.00
2023-05-08T10:43:35.266Z,7408.00
2023-05-08T10:44:35.464Z,7432.00
2023-05-08T10:45:35.336Z,7452.00
2023-05-08T10:46:35.439Z,7452.00
2023-05-08T10:47:35.699Z,7440.00
2023-05-08T10:48:35.464Z,7400.00
2023-05-08T10:49:35.456Z,7324.00
2023-05-08T10:50:35.534Z,7216.00
2023-05-08T10:51:35.520Z,7084.00
2023-05-08T10:53:35.896Z,6792.00
2023-05-08T10:54:35.611Z,6668.00
2023-05-08T10:55:35.744Z,6568.00
2023-05-08T10:56:35.678Z,6488.00
2023-05-08T10:57:35.711Z,6436.00
2023-05-08T10:58:35.776Z,6384.00
2023-05-08T10:59:36.074Z,6348.00
2023-05-08T11:00:35.823Z,6316.00
2023-05-08T11:01:35.865Z,6304.00
2023-05-08T11:02:35.985Z,6296.00
2023-05-08T11:03:35.951Z,6300.00
2023-05-08T11:04:36.043Z,6320.00
2023-05-08T11:05:35.958Z,6364.00
2023-05-08T11:06:36.245Z,6432.00
2023-05-08T11:07:36.025Z,6540.00
2023-05-08T11:08:36.058Z,6700.00
2023-05-08T11:09:36.088Z,6896.00
2023-05-08T11:10:36.117Z,7072.00
2023-05-08T11:11:36.147Z,7220.00
2023-05-08T11:12:36.193Z,7304.00
2023-05-08T11:13:36.236Z,7364.00
2023-05-08T11:14:36.267Z,7392.00
2023-05-08T11:15:36.300Z,7416.00
2023-05-08T11:16:36.369Z,7440.00
2023-05-08T11:17:36.396Z,7460.00
2023-05-08T11:18:48.419Z,7472.00
2023-05-08T11:19:36.405Z,7452.00
2023-05-08T11:20:36.434Z,7420.00
2023-05-08T11:21:36.465Z,7404.00
2023-05-08T11:22:36.512Z,7392.00
2023-05-08T11:23:36.533Z,7372.00
2023-05-08T11:24:36.590Z,7336.00
2023-05-08T11:25:36.904Z,7276.00
2023-05-08T11:26:36.632Z,7208.00
2023-05-08T11:27:36.761Z,7124.00
2023-05-08T11:28:36.697Z,7028.00
2023-05-08T11:29:36.749Z,6940.00
2023-05-08T11:30:36.796Z,6856.00
2023-05-08T11:31:36.836Z,6784.00
2023-05-08T11:32:37.163Z,6704.00
2023-05-08T11:33:36.861Z,6640.00
2023-05-08T11:34:36.897Z,6520.00
2023-05-08T11:35:36.922Z,6384.00
2023-05-08T11:36:36.958Z,6252.00
2023-05-08T11:37:36.983Z,6116.00
2023-05-08T11:38:37.268Z,6012.00
2023-05-08T11:39:37.065Z,5948.00
2023-05-08T11:40:37.082Z,5896.00
2023-05-08T11:41:37.130Z,5856.00
2023-05-08T11:42:37.138Z,5848.00
2023-05-08T11:43:37.172Z,5876.00
2023-05-08T11:44:37.509Z,5960.00
2023-05-08T11:45:37.236Z,6056.00
2023-05-08T11:46:37.303Z,6100.00
2023-05-08T11:47:37.309Z,6004.00
2023-05-08T11:48:37.364Z,5860.00
2023-05-08T11:49:37.378Z,5632.00
2023-05-08T11:51:37.756Z,5220.00
2023-05-08T11:52:37.472Z,5168.00
2023-05-08T11:53:37.515Z,5276.00
2023-05-08T11:54:37.530Z,5268.00
2023-05-08T11:55:37.558Z,5352.00
2023-05-08T11:57:37.630Z,5616.00
2023-05-08T11:58:37.926Z,5740.00
2023-05-08T12:01:37.753Z,6428.00
2023-05-08T12:03:38.000Z,6992.00
2023-05-08T12:04:38.200Z,7212.00
2023-05-08T12:05:37.886Z,7268.00
2023-05-08T12:06:37.914Z,7260.00
2023-05-08T12:07:37.941Z,7184.00
2023-05-08T12:08:37.979Z,7104.00
2023-05-08T12:09:38.027Z,7060.00
2023-05-08T12:10:38.047Z,7080.00
2023-05-08T12:11:38.372Z,7144.00
2023-05-08T12:12:38.127Z,7212.00
2023-05-08T12:13:38.146Z,7268.00
2023-05-08T12:15:38.208Z,7372.00
2023-05-08T12:16:38.267Z,7420.00
2023-05-08T12:17:38.343Z,7436.00
2023-05-08T12:18:39.903Z,7412.00
2023-05-08T12:19:38.336Z,7336.00
2023-05-08T12:20:38.383Z,7228.00
2023-05-08T12:21:38.394Z,7112.00
2023-05-08T12:22:38.433Z,6972.00
2023-05-08T12:23:38.458Z,6860.00
2023-05-08T12:24:38.489Z,6764.00
2023-05-08T12:25:38.814Z,6696.00
2023-05-08T12:26:38.579Z,6656.00
2023-05-08T12:28:38.629Z,6536.00
2023-05-08T12:29:38.679Z,6452.00
2023-05-08T12:30:38.694Z,6388.00
2023-05-08T12:31:38.804Z,6344.00
2023-05-08T12:33:38.778Z,6196.00
2023-05-08T12:34:38.812Z,6164.00
2023-05-08T12:35:38.840Z,6172.00
2023-05-08T12:36:38.897Z,6176.00
2023-05-08T12:37:38.918Z,6164.00
2023-05-08T12:38:39.196Z,6128.00
2023-05-08T12:39:38.971Z,6056.00
2023-05-08T12:40:39.008Z,5976.00
2023-05-08T12:41:39.040Z,5920.00
2023-05-08T12:43:39.114Z,5900.00
2023-05-08T12:44:39.147Z,5884.00
2023-05-08T12:45:39.519Z,5868.00
2023-05-08T12:46:39.262Z,5868.00
2023-05-08T12:47:39.327Z,5864.00
2023-05-08T12:48:39.270Z,5856.00
2023-05-08T12:49:39.290Z,5836.00
2023-05-08T12:50:39.322Z,5804.00
2023-05-08T12:51:39.352Z,5780.00
2023-05-08T12:52:39.529Z,5776.00
2023-05-08T12:53:39.421Z,5800.00
2023-05-08T12:54:39.448Z,5832.00
2023-05-08T12:55:39.500Z,5864.00
2023-05-08T12:57:39.555Z,5864.00
2023-05-08T12:58:39.838Z,5864.00
2023-05-08T12:59:39.612Z,5884.00
2023-05-08T13:00:39.649Z,5912.00
2023-05-08T13:01:39.731Z,5916.00
2023-05-08T13:02:47.570Z,5932.00
2023-05-08T13:03:39.827Z,6004.00
2023-05-08T13:04:40.097Z,6120.00
2023-05-08T13:05:39.804Z,6256.00
2023-05-08T13:07:39.872Z,6620.00
2023-05-08T13:08:40.030Z,6828.00
2023-05-08T13:09:39.956Z,7040.00
2023-05-08T13:10:40.256Z,7224.00
2023-05-08T13:11:39.999Z,7408.00
2023-05-08T13:12:40.073Z,7572.00
2023-05-08T13:13:40.063Z,7708.00
2023-05-08T13:14:40.096Z,7796.00
2023-05-08T13:15:40.141Z,7860.00
2023-05-08T13:16:40.324Z,7908.00
2023-05-08T13:17:40.229Z,7948.00
2023-05-08T13:18:40.224Z,7968.00
2023-05-08T13:19:40.257Z,7980.00